createdAt,value
2019-01-03T00:00:59.684Z,10.50
2019-01-03T00:03:32.830Z,10.23
2019-01-03T00:06:03.023Z,11.43
2019-01-03T00:08:42.383Z,11.23
2019-01-03T00:11:12.495Z,10.80
2019-01-03T00:13:51.851Z,10.10
2019-01-03T00:16:22.023Z,8.57
2019-01-03T00:18:52.086Z,9.33
2019-01-03T00:21:28.223Z,7.93
2019-01-03T00:24:00.969Z,7.67
2019-01-03T00:26:53.569Z,7.03
2019-01-03T00:29:35.992Z,8.43
2019-01-03T00:32:22.928Z,8.90
2019-01-03T00:34:53.068Z,7.33
2019-01-03T00:37:23.136Z,8.90
2019-01-03T00:39:59.287Z,8.53
2019-01-03T00:42:32.203Z,7.83
2019-01-03T00:45:18.619Z,7.00
2019-01-03T00:47:51.360Z,8.43
2019-01-03T00:50:27.203Z,7.50
2019-01-03T00:52:57.259Z,7.40
2019-01-03T00:55:46.416Z,7.03
2019-01-03T00:58:33.004Z,6.80
2019-01-03T01:01:06.123Z,7.10
2019-01-03T01:03:52.237Z,6.90
2019-01-03T01:06:38.625Z,7.27
2019-01-03T01:09:08.767Z,7.10
2019-01-03T01:11:46.343Z,6.90
2019-01-03T01:14:32.299Z,7.07
2019-01-03T01:17:08.428Z,6.57
2019-01-03T01:20:06.749Z,7.13
2019-01-03T01:22:37.098Z,7.63
2019-01-03T01:28:26.267Z,8.67
2019-01-03T01:30:56.370Z,8.00
2019-01-03T01:33:32.682Z,9.57
2019-01-03T01:36:02.919Z,9.87
2019-01-03T01:38:33.140Z,10.97
2019-01-03T01:41:03.341Z,9.53
2019-01-03T01:43:42.354Z,9.60
2019-01-03T01:46:30.330Z,10.30
2019-01-03T01:49:16.748Z,8.63
2019-01-03T01:51:47.936Z,8.63
2019-01-03T01:54:27.290Z,8.60
2019-01-03T01:57:03.505Z,7.73
2019-01-03T01:59:33.654Z,8.77
2019-01-03T02:02:20.146Z,7.57
2019-01-03T02:04:52.965Z,8.73
2019-01-03T02:07:23.084Z,8.23
2019-01-03T02:09:59.314Z,8.00
2019-01-03T02:12:41.410Z,7.30
2019-01-03T02:15:20.161Z,6.97
2019-01-03T02:18:06.303Z,7.93
2019-01-03T02:23:42.248Z,7.20
2019-01-03T02:26:14.761Z,7.30
2019-01-03T02:29:00.865Z,7.90
2019-01-03T02:31:41.254Z,7.07
2019-01-03T02:34:27.641Z,7.10
2019-01-03T02:37:00.843Z,8.77
2019-01-03T02:39:50.256Z,8.17
2019-01-03T02:42:20.445Z,8.07
2019-01-03T02:44:50.542Z,7.57
2019-01-03T02:47:37.250Z,8.53
2019-01-03T02:50:07.976Z,7.67
2019-01-03T02:52:46.994Z,8.03
2019-01-03T02:55:19.795Z,7.33
2019-01-03T02:58:04.496Z,8.33
2019-01-03T03:00:43.529Z,7.17
2019-01-03T03:03:22.657Z,8.10
2019-01-03T03:06:01.892Z,7.40
2019-01-03T03:08:37.812Z,5.97
2019-01-03T03:11:24.451Z,7.17
2019-01-03T03:13:57.426Z,7.80
2019-01-03T03:16:28.750Z,7.37
2019-01-03T03:19:01.542Z,7.53
2019-01-03T03:21:33.849Z,8.30
2019-01-03T03:24:20.222Z,7.13
2019-01-03T03:26:50.604Z,8.27
2019-01-03T03:29:36.623Z,7.00
2019-01-03T03:32:24.946Z,7.50
2019-01-03T03:34:58.084Z,7.93
2019-01-03T03:37:34.172Z,7.30
2019-01-03T03:42:58.184Z,7.87
2019-01-03T03:45:32.251Z,10.40
2019-01-03T03:48:05.513Z,7.23
2019-01-03T03:50:40.306Z,7.07
2019-01-03T03:53:19.381Z,8.23
2019-01-03T03:55:53.628Z,8.30
2019-01-03T03:58:29.522Z,8.33
2019-01-03T04:04:18.311Z,8.13
2019-01-03T04:07:00.673Z,9.13
2019-01-03T04:09:33.472Z,6.87
2019-01-03T04:12:08.946Z,9.00
2019-01-03T04:14:45.802Z,8.90
2019-01-03T04:17:24.889Z,7.27
2019-01-03T04:20:01.394Z,7.83
2019-01-03T04:22:31.596Z,8.70
2019-01-03T04:25:07.798Z,9.10
2019-01-03T04:27:48.056Z,8.00
2019-01-03T04:30:29.940Z,9.30
2019-01-03T04:33:12.325Z,8.97
2019-01-03T04:35:58.771Z,7.43
2019-01-03T04:38:41.064Z,7.43
2019-01-03T04:41:20.133Z,7.47
2019-01-03T04:43:52.938Z,7.60
2019-01-03T04:46:35.099Z,7.57
2019-01-03T04:49:29.523Z,6.87
2019-01-03T04:52:11.883Z,7.73
2019-01-03T04:54:45.034Z,7.40
2019-01-03T04:57:27.416Z,8.43
2019-01-03T05:00:06.241Z,9.50
2019-01-03T05:02:36.657Z,7.90
2019-01-03T05:05:14.116Z,8.13
2019-01-03T05:07:54.229Z,7.77
2019-01-03T05:10:24.420Z,8.17
2019-01-03T05:13:00.740Z,8.83
2019-01-03T05:15:42.736Z,7.53
2019-01-03T05:18:40.361Z,8.63
2019-01-03T05:21:20.491Z,21.60
2019-01-03T05:23:57.710Z,14.37
2019-01-03T05:26:35.459Z,13.43
2019-01-03T05:29:22.062Z,10.37
2019-01-03T05:31:52.553Z,8.20
2019-01-03T05:34:28.368Z,8.33
2019-01-03T05:37:10.603Z,10.50
2019-01-03T05:39:40.670Z,10.37
2019-01-03T05:42:22.796Z,9.80
2019-01-03T05:44:58.459Z,10.87
2019-01-03T05:47:31.491Z,11.70
2019-01-03T05:50:17.830Z,12.40
2019-01-03T05:53:06.442Z,11.97
2019-01-03T05:55:42.327Z,10.30
2019-01-03T05:58:18.321Z,10.77
2019-01-03T06:00:54.019Z,10.50
2019-01-03T06:03:24.169Z,8.90
2019-01-03T06:06:10.722Z,10.03
2019-01-03T06:08:46.949Z,11.20
2019-01-03T06:11:32.396Z,11.10
2019-01-03T06:14:02.780Z,9.80
2019-01-03T06:16:35.994Z,11.37
2019-01-03T06:19:06.147Z,14.10
2019-01-03T06:21:51.385Z,17.40
2019-01-03T06:24:37.996Z,16.13
2019-01-03T06:27:14.263Z,15.13
2019-01-03T06:29:44.350Z,16.17
2019-01-03T06:32:17.167Z,15.97
2019-01-03T06:35:03.444Z,18.07
2019-01-03T06:37:33.589Z,13.93
2019-01-03T06:40:09.443Z,15.10
2019-01-03T06:42:42.226Z,14.27
2019-01-03T06:45:28.526Z,14.67
2019-01-03T06:48:08.100Z,12.33
2019-01-03T06:50:40.941Z,13.37
2019-01-03T06:53:20.162Z,10.10
2019-01-03T06:55:50.231Z,9.40
2019-01-03T06:58:26.041Z,9.57
2019-01-03T07:00:58.599Z,9.63
2019-01-03T07:03:44.504Z,7.93
2019-01-03T07:06:31.063Z,9.47
2019-01-03T07:09:17.657Z,7.77
2019-01-03T07:11:47.720Z,8.03
2019-01-03T07:14:34.408Z,7.60
2019-01-03T07:17:04.683Z,8.03
2019-01-03T07:19:48.405Z,8.10
2019-01-03T07:22:24.577Z,11.23
2019-01-03T07:25:11.132Z,9.63
2019-01-03T07:28:01.055Z,8.37
2019-01-03T07:30:33.222Z,7.70
2019-01-03T07:33:18.791Z,7.80
2019-01-03T07:35:48.863Z,8.77
2019-01-03T07:38:25.591Z,9.93
2019-01-03T07:40:58.731Z,8.60
2019-01-03T07:43:45.285Z,10.53
2019-01-03T07:46:19.099Z,32.97
2019-01-03T07:49:05.331Z,24.47
2019-01-03T07:51:36.601Z,14.30
2019-01-03T07:54:18.744Z,11.27
2019-01-03T07:57:05.338Z,11.27
2019-01-03T07:59:36.428Z,11.43
2019-01-03T08:02:06.541Z,12.33
2019-01-03T08:04:45.527Z,12.80
2019-01-03T08:07:41.077Z,18.33
2019-01-03T08:10:26.588Z,18.93
2019-01-03T08:12:59.431Z,14.27
2019-01-03T08:15:32.402Z,15.87
2019-01-03T08:18:18.785Z,14.77
2019-01-03T08:21:05.156Z,13.63
2019-01-03T08:23:38.530Z,12.73
2019-01-03T08:26:17.607Z,12.53
2019-01-03T08:28:50.593Z,12.20
2019-01-03T08:31:29.492Z,12.70
2019-01-03T08:34:08.796Z,12.43
2019-01-03T08:36:39.166Z,12.40
2019-01-03T08:39:27.581Z,12.20
2019-01-03T08:42:14.009Z,11.87
2019-01-03T08:44:49.674Z,11.30
2019-01-03T08:47:36.705Z,11.47
2019-01-03T08:50:25.990Z,11.17
2019-01-03T08:53:12.199Z,11.00
2019-01-03T08:55:51.279Z,12.30
2019-01-03T08:58:37.632Z,11.47
2019-01-03T09:01:21.659Z,12.07
2019-01-03T09:04:09.847Z,12.33
2019-01-03T09:06:56.259Z,13.37
2019-01-03T09:09:32.451Z,12.20
2019-01-03T09:12:08.235Z,11.87
2019-01-03T09:14:41.335Z,11.80
2019-01-03T09:17:27.783Z,11.33
2019-01-03T09:20:12.850Z,11.23
2019-01-03T09:22:54.702Z,11.77
2019-01-03T09:25:25.691Z,11.47
2019-01-03T09:27:55.827Z,11.90
2019-01-03T09:30:41.823Z,12.90
2019-01-03T09:33:28.246Z,12.43
2019-01-03T09:36:10.339Z,11.73
2019-01-03T09:38:56.896Z,12.47
2019-01-03T09:41:33.032Z,13.77
2019-01-03T09:44:09.612Z,11.20
2019-01-03T09:46:38.150Z,11.97
2019-01-03T09:49:06.593Z,12.50
2019-01-03T09:51:35.141Z,12.40
2019-01-03T09:54:03.707Z,11.83
2019-01-03T09:56:34.253Z,11.17
2019-01-03T09:59:02.734Z,11.40
2019-01-03T10:01:32.189Z,11.50
2019-01-03T10:04:00.578Z,12.03
2019-01-03T10:06:29.004Z,12.57
2019-01-03T10:08:57.514Z,13.23
2019-01-03T10:11:27.292Z,14.50
2019-01-03T10:13:55.726Z,14.87
2019-01-03T10:16:24.232Z,14.33
2019-01-03T10:18:52.708Z,13.17
2019-01-03T10:21:21.365Z,13.17
2019-01-03T10:23:49.924Z,12.73
2019-01-03T10:26:19.384Z,12.10
2019-01-03T10:28:47.812Z,12.40
2019-01-03T10:31:16.229Z,11.50
2019-01-03T10:33:44.819Z,12.50
2019-01-03T10:36:13.245Z,10.27
2019-01-03T10:38:41.692Z,15.60
2019-01-03T10:41:10.123Z,11.73
2019-01-03T10:43:38.552Z,11.77
2019-01-03T10:46:07.055Z,9.33
2019-01-03T10:48:35.509Z,8.53
2019-01-03T10:51:06.639Z,9.40
2019-01-03T10:53:35.102Z,9.27
2019-01-03T10:56:04.546Z,10.33
2019-01-03T10:58:33.069Z,9.60
2019-01-03T11:01:01.641Z,9.70
2019-01-03T11:03:30.061Z,9.93
2019-01-03T11:05:58.472Z,9.90
2019-01-03T11:08:26.946Z,11.80
2019-01-03T11:10:55.372Z,10.70
2019-01-03T11:13:23.828Z,8.97
2019-01-03T11:15:53.425Z,10.17
2019-01-03T11:18:23.903Z,9.40
2019-01-03T11:20:52.336Z,9.17
2019-01-03T11:23:20.780Z,9.33
2019-01-03T11:25:49.187Z,9.07
2019-01-03T11:28:17.600Z,9.83
2019-01-03T11:30:46.040Z,9.00
2019-01-03T11:33:14.447Z,9.03
2019-01-03T11:35:42.876Z,8.90
2019-01-03T11:38:11.292Z,9.83
2019-01-03T11:40:39.733Z,9.03
2019-01-03T11:43:08.165Z,9.37
2019-01-03T11:45:36.624Z,9.20
2019-01-03T11:48:05.027Z,9.30
2019-01-03T11:50:33.498Z,8.37
2019-01-03T11:53:01.988Z,10.67
2019-01-03T11:55:30.415Z,9.87
2019-01-03T11:57:58.830Z,10.00
2019-01-03T12:00:27.290Z,10.13
2019-01-03T12:02:55.779Z,9.83
2019-01-03T12:05:25.647Z,9.10
2019-01-03T12:07:54.123Z,10.00
2019-01-03T12:10:22.579Z,9.90
2019-01-03T12:12:51.279Z,9.13
2019-01-03T12:15:19.716Z,8.80
2019-01-03T12:17:48.118Z,8.47
2019-01-03T12:20:16.551Z,9.10
2019-01-03T12:22:44.955Z,9.43
2019-01-03T12:25:13.406Z,10.53
2019-01-03T12:27:42.932Z,9.90
2019-01-03T12:30:11.371Z,9.60
2019-01-03T12:32:39.796Z,8.97
2019-01-03T12:35:08.641Z,9.27
2019-01-03T12:37:37.069Z,8.67
2019-01-03T12:40:06.977Z,9.30
2019-01-03T12:42:35.412Z,9.23
2019-01-03T12:45:06.607Z,8.63
2019-01-03T12:47:35.020Z,8.83
2019-01-03T12:50:05.233Z,9.50
2019-01-03T12:52:33.770Z,10.00
2019-01-03T12:55:03.870Z,8.67
2019-01-03T12:57:32.279Z,9.83
2019-01-03T13:00:00.734Z,9.33
2019-01-03T13:02:29.164Z,9.70
2019-01-03T13:04:57.593Z,9.03
2019-01-03T13:07:26.091Z,8.37
2019-01-03T13:09:55.309Z,9.10
2019-01-03T13:12:23.778Z,9.40
2019-01-03T13:14:52.260Z,10.33
2019-01-03T13:17:21.147Z,10.53
2019-01-03T13:19:49.556Z,9.87
2019-01-03T13:22:17.988Z,8.87
2019-01-03T13:24:46.415Z,9.33
2019-01-03T13:27:14.902Z,9.47
2019-01-03T13:29:43.341Z,9.30
2019-01-03T13:32:11.935Z,8.83
2019-01-03T13:34:40.378Z,9.97
2019-01-03T13:37:09.710Z,9.20
2019-01-03T13:39:38.200Z,10.23
2019-01-03T13:42:06.671Z,9.70
2019-01-03T13:44:35.160Z,9.57
2019-01-03T13:47:04.999Z,10.60
2019-01-03T13:49:33.478Z,8.73
2019-01-03T13:52:03.184Z,9.67
2019-01-03T13:54:34.138Z,9.30
2019-01-03T13:57:03.182Z,9.13
2019-01-03T13:59:33.770Z,9.40
2019-01-03T14:02:02.381Z,9.40
2019-01-03T14:04:30.801Z,8.80
2019-01-03T14:06:59.316Z,8.73
2019-01-03T14:09:27.805Z,9.07
2019-01-03T14:11:56.574Z,8.67
2019-01-03T14:14:25.019Z,8.70
2019-01-03T14:16:53.610Z,9.13
2019-01-03T14:19:22.070Z,9.17
2019-01-03T14:21:50.514Z,8.10
2019-01-03T14:24:18.936Z,8.67
2019-01-03T14:26:47.384Z,7.63
2019-01-03T14:29:15.810Z,10.90
2019-01-03T14:31:45.853Z,8.70
2019-01-03T14:34:14.413Z,8.83
2019-01-03T14:36:44.035Z,8.27
2019-01-03T14:39:12.522Z,7.53
2019-01-03T14:41:42.534Z,7.67
2019-01-03T14:44:10.982Z,8.27
2019-01-03T14:46:39.435Z,6.37
2019-01-03T14:49:07.898Z,7.13
2019-01-03T14:51:36.438Z,7.33
2019-01-03T14:54:04.956Z,7.27
2019-01-03T14:56:33.816Z,8.03
2019-01-03T14:59:03.806Z,8.27
2019-01-03T15:01:32.982Z,7.47
2019-01-03T15:04:01.698Z,7.37
2019-01-03T15:06:30.268Z,7.90
2019-01-03T15:08:58.760Z,8.13
2019-01-03T15:11:27.300Z,8.37
2019-01-03T15:13:55.759Z,8.63
2019-01-03T15:16:24.514Z,8.40
2019-01-03T15:18:53.494Z,8.23
2019-01-03T15:21:25.096Z,7.73
2019-01-03T15:23:53.630Z,7.20
2019-01-03T15:26:23.635Z,7.70
2019-01-03T15:28:52.517Z,7.83
2019-01-03T15:31:22.054Z,7.03
2019-01-03T15:33:50.505Z,6.67
2019-01-03T15:36:19.130Z,6.70
2019-01-03T15:38:47.600Z,6.97
2019-01-03T15:41:18.719Z,6.73
2019-01-03T15:43:47.179Z,7.80
2019-01-03T15:46:15.584Z,9.17
2019-01-03T15:48:44.019Z,7.27
2019-01-03T15:51:12.457Z,5.93
2019-01-03T15:53:40.901Z,5.00
2019-01-03T15:56:10.224Z,6.07
2019-01-03T15:58:38.647Z,5.10
2019-01-03T16:01:07.729Z,5.10
2019-01-03T16:03:36.172Z,6.07
2019-01-03T16:06:04.865Z,5.70
2019-01-03T16:08:34.080Z,5.63
2019-01-03T16:11:02.553Z,6.40
2019-01-03T16:13:31.212Z,7.17
2019-01-03T16:15:59.656Z,5.30
2019-01-03T16:18:28.067Z,6.67
2019-01-03T16:20:56.486Z,6.37
2019-01-03T16:23:24.934Z,5.77
2019-01-03T16:25:53.380Z,6.33
2019-01-03T16:28:24.110Z,6.00
2019-01-03T16:30:52.556Z,8.43
2019-01-03T16:33:21.052Z,9.87
2019-01-03T16:35:49.705Z,8.17
2019-01-03T16:38:19.083Z,8.27
2019-01-03T16:40:47.511Z,7.53
2019-01-03T16:43:15.972Z,9.47
2019-01-03T16:45:44.395Z,8.07
2019-01-03T16:48:12.812Z,9.40
2019-01-03T16:50:41.231Z,9.23
2019-01-03T16:53:09.635Z,9.40
2019-01-03T16:55:38.073Z,8.13
2019-01-03T16:58:06.509Z,7.70
2019-01-03T17:00:34.955Z,7.30
2019-01-03T17:03:03.393Z,6.50
2019-01-03T17:05:32.400Z,7.37
2019-01-03T17:08:00.845Z,7.77
2019-01-03T17:10:30.520Z,8.00
2019-01-03T17:12:58.940Z,7.60
2019-01-03T17:15:27.368Z,8.10
2019-01-03T17:17:55.777Z,6.60
2019-01-03T17:20:24.199Z,7.43
2019-01-03T17:22:52.627Z,7.33
2019-01-03T17:25:22.199Z,7.83
2019-01-03T17:27:50.619Z,7.77
2019-01-03T17:30:19.040Z,7.77
2019-01-03T17:32:47.451Z,6.80
2019-01-03T17:35:15.948Z,7.03
2019-01-03T17:37:44.591Z,7.70
2019-01-03T17:40:13.265Z,8.13
2019-01-03T17:42:41.770Z,8.00
2019-01-03T17:45:11.120Z,9.23
2019-01-03T17:47:39.631Z,8.23
2019-01-03T17:50:11.914Z,7.97
2019-01-03T17:52:40.411Z,7.70
2019-01-03T17:55:08.998Z,9.03
2019-01-03T17:57:37.521Z,8.00
2019-01-03T18:00:09.230Z,7.47
2019-01-03T18:02:37.704Z,7.27
2019-01-03T18:05:06.357Z,7.53
2019-01-03T18:07:34.859Z,8.03
2019-01-03T18:10:04.250Z,7.87
2019-01-03T18:12:32.709Z,8.80
2019-01-03T18:15:01.283Z,10.90
2019-01-03T18:17:29.699Z,10.20
2019-01-03T18:19:58.121Z,12.77
2019-01-03T18:22:26.551Z,12.70
2019-01-03T18:24:55.050Z,13.97
2019-01-03T18:27:23.504Z,10.60
2019-01-03T18:29:51.937Z,10.97
2019-01-03T18:32:20.391Z,12.17
2019-01-03T18:34:48.825Z,14.67
2019-01-03T18:37:17.352Z,16.73
2019-01-03T18:39:47.831Z,12.20
2019-01-03T18:42:16.289Z,11.40
2019-01-03T18:44:44.760Z,11.80
2019-01-03T18:47:13.202Z,12.67
2019-01-03T18:49:41.625Z,12.90
2019-01-03T18:52:10.044Z,12.33
2019-01-03T18:54:38.491Z,12.87
2019-01-03T18:57:06.929Z,12.97
2019-01-03T18:59:35.384Z,11.97
2019-01-03T19:02:03.881Z,11.27
2019-01-03T19:04:32.347Z,11.63
2019-01-03T19:07:00.890Z,11.37
2019-01-03T19:09:29.388Z,11.20
2019-01-03T19:11:57.857Z,11.27
2019-01-03T19:14:26.408Z,11.27
2019-01-03T19:16:56.369Z,10.90
2019-01-03T19:19:24.835Z,11.83
2019-01-03T19:21:56.020Z,10.73
2019-01-03T19:24:24.634Z,11.97
2019-01-03T19:26:53.161Z,11.23
2019-01-03T19:29:21.681Z,14.00
2019-01-03T19:31:51.562Z,12.80
2019-01-03T19:34:20.081Z,11.73
2019-01-03T19:36:51.100Z,12.13
2019-01-03T19:39:19.589Z,13.37
2019-01-03T19:41:48.030Z,12.70
2019-01-03T19:44:16.688Z,13.40
2019-01-03T19:46:45.957Z,10.93
2019-01-03T19:49:14.441Z,9.87
2019-01-03T19:51:42.934Z,11.73
2019-01-03T19:54:11.391Z,12.13
2019-01-03T19:56:40.973Z,11.67
2019-01-03T19:59:09.430Z,10.83
2019-01-03T20:01:38.454Z,9.57
2019-01-03T20:04:06.888Z,9.87
2019-01-03T20:06:35.367Z,10.03
2019-01-03T20:09:04.554Z,9.50
2019-01-03T20:11:33.012Z,10.13
2019-01-03T20:14:01.494Z,9.70
2019-01-03T20:16:29.966Z,9.80
2019-01-03T20:18:58.547Z,9.50
2019-01-03T20:21:26.981Z,10.10
2019-01-03T20:23:55.429Z,9.90
2019-01-03T20:26:25.413Z,9.87
2019-01-03T20:28:53.823Z,9.73
2019-01-03T20:31:22.263Z,9.77
2019-01-03T20:33:51.776Z,9.43
2019-01-03T20:36:23.153Z,10.10
2019-01-03T20:38:51.623Z,9.60
2019-01-03T20:41:20.797Z,8.77
2019-01-03T20:43:49.215Z,9.37
2019-01-03T20:46:23.578Z,9.23
2019-01-03T20:48:52.032Z,9.47
2019-01-03T20:51:20.493Z,9.57
2019-01-03T20:53:48.956Z,9.70
2019-01-03T20:56:18.485Z,10.47
2019-01-03T20:58:46.928Z,10.60
2019-01-03T21:01:28.736Z,12.13
2019-01-03T21:03:57.282Z,11.40
2019-01-03T21:06:25.769Z,13.90
2019-01-03T21:08:54.206Z,12.53
2019-01-03T21:11:22.697Z,13.47
2019-01-03T21:13:51.128Z,12.17
2019-01-03T21:16:22.618Z,15.20
2019-01-03T21:18:51.092Z,14.17
2019-01-03T21:21:21.149Z,14.10
2019-01-03T21:23:49.726Z,14.27
2019-01-03T21:26:21.351Z,12.53
2019-01-03T21:28:49.878Z,13.97
2019-01-03T21:31:18.462Z,14.70
2019-01-03T21:33:46.987Z,14.10
2019-01-03T21:36:16.757Z,14.17
2019-01-03T21:38:45.534Z,13.10
2019-01-03T21:41:14.054Z,13.73
2019-01-03T21:43:42.621Z,12.17
2019-01-03T21:46:11.150Z,13.67
2019-01-03T21:48:39.702Z,13.00
2019-01-03T21:51:10.361Z,13.60
2019-01-03T21:53:39.057Z,13.50
2019-01-03T21:56:07.586Z,12.90
2019-01-03T21:58:36.277Z,12.90
2019-01-03T22:01:07.667Z,11.70
2019-01-03T22:03:36.707Z,10.90
2019-01-03T22:06:05.362Z,10.50
2019-01-03T22:08:37.284Z,9.77
2019-01-03T22:11:09.214Z,10.20
2019-01-03T22:13:37.960Z,10.90
2019-01-03T22:16:06.770Z,10.47
2019-01-03T22:18:35.340Z,10.83
2019-01-03T22:21:07.795Z,10.00
2019-01-03T22:23:37.549Z,10.03
2019-01-03T22:26:06.870Z,10.67
2019-01-03T22:28:35.522Z,10.90
2019-01-03T22:31:07.750Z,13.17
2019-01-03T22:33:36.650Z,16.13
2019-01-03T22:36:05.636Z,10.73
2019-01-03T22:38:34.250Z,9.33
2019-01-03T22:41:03.167Z,10.30
2019-01-03T22:43:34.531Z,10.47
2019-01-03T22:46:06.427Z,9.73
2019-01-03T22:48:35.696Z,10.60
2019-01-03T22:51:04.835Z,9.50
2019-01-03T22:53:34.786Z,10.97
2019-01-03T22:56:06.419Z,11.13
2019-01-03T22:58:34.955Z,12.40
2019-01-03T23:01:05.170Z,11.10
2019-01-03T23:03:34.053Z,10.27
2019-01-03T23:06:12.764Z,9.97
2019-01-03T23:08:43.061Z,10.43
2019-01-03T23:11:11.510Z,11.97
2019-01-03T23:13:39.919Z,11.37
2019-01-03T23:16:08.756Z,12.33
2019-01-03T23:18:37.211Z,12.67
2019-01-03T23:21:05.663Z,12.33
2019-01-03T23:23:34.103Z,12.43
2019-01-03T23:26:05.851Z,12.07
2019-01-03T23:28:34.310Z,12.13
2019-01-03T23:31:02.772Z,12.43
2019-01-03T23:33:31.213Z,12.70
2019-01-03T23:35:59.741Z,11.47
2019-01-03T23:38:28.138Z,13.23
2019-01-03T23:40:56.566Z,12.07
2019-01-03T23:43:26.105Z,12.03
2019-01-03T23:45:55.138Z,11.67
2019-01-03T23:48:23.684Z,11.63
2019-01-03T23:50:52.138Z,11.70
2019-01-03T23:53:20.579Z,11.30
2019-01-03T23:55:51.624Z,11.10
2019-01-03T23:58:20.061Z,10.73
